Terminal Aerodrome Forecast
Issued by NWS

Home | Current Version | Previous Version | Text Only | Print | Product List | Glossary On
Versions: 1 2 3 4 5 6 7 8 9 10 11 12
560
FTUS45 KVEF 261135
TAFBIH
TAF
KBIH 261135Z 2612/2712 35010KT P6SM SCT250
     FM261800 01012G20KT P6SM SCT150 SCT250
     FM270600 35009KT P6SM FEW150 SCT250=

USA.gov is the U.S. government's official web portal to all federal, state and local government web resources and services.